createdAt,value
2018-08-10T13:53:09.077Z,27.60
2018-08-10T13:55:37.412Z,27.10
2018-08-10T13:58:05.508Z,26.00
2018-08-10T14:00:33.671Z,25.90
2018-08-10T14:03:05.969Z,25.40
2018-08-10T14:05:34.307Z,25.10
2018-08-10T14:08:02.572Z,25.20
2018-08-10T14:10:31.278Z,25.10
2018-08-10T14:12:59.508Z,24.70
2018-08-10T14:15:27.660Z,24.40
2018-08-10T14:17:55.875Z,23.70
2018-08-10T14:20:24.257Z,23.20
2018-08-10T14:22:52.446Z,22.80
2018-08-10T14:25:20.577Z,22.90
2018-08-10T14:27:48.843Z,23.10
2018-08-10T14:30:17.061Z,22.70
2018-08-10T14:32:45.280Z,22.70
2018-08-10T14:35:13.927Z,22.70
2018-08-10T14:37:42.537Z,22.80
2018-08-10T14:40:13.152Z,22.70
2018-08-10T14:42:41.424Z,22.70
2018-08-10T14:45:15.488Z,22.70
2018-08-10T14:47:43.691Z,22.60
2018-08-10T14:50:14.548Z,22.80
2018-08-10T14:52:42.824Z,22.90
2018-08-10T14:55:13.112Z,23.10
2018-08-10T14:57:41.416Z,22.90
2018-08-10T15:00:13.815Z,22.80
2018-08-10T15:02:42.305Z,23.00
2018-08-10T15:05:10.475Z,23.20
2018-08-10T15:07:38.629Z,23.20
2018-08-10T15:10:09.189Z,23.50
2018-08-10T15:12:38.137Z,23.40
2018-08-10T15:15:08.145Z,23.70
2018-08-10T15:17:36.789Z,24.00
2018-08-10T15:20:07.006Z,24.30
2018-08-10T15:22:35.333Z,24.20
2018-08-10T15:25:03.742Z,24.30
2018-08-10T15:27:31.956Z,24.20
2018-08-10T15:30:00.200Z,24.00
2018-08-10T15:32:28.377Z,24.40
2018-08-10T15:34:56.669Z,24.50
2018-08-10T15:37:25.293Z,25.00
2018-08-10T15:39:53.487Z,24.80
2018-08-10T15:42:21.617Z,24.60
2018-08-10T15:44:49.877Z,24.20
2018-08-10T15:49:57.900Z,24.60
2018-08-10T15:52:28.773Z,24.90
2018-08-10T15:54:57.346Z,25.20
2018-08-10T15:57:25.623Z,25.30
2018-08-10T15:59:53.905Z,25.40
2018-08-10T16:02:22.123Z,24.90
2018-08-10T16:04:50.397Z,25.10
2018-08-10T16:07:18.675Z,25.10
2018-08-10T16:09:47.061Z,25.00
2018-08-10T16:12:15.260Z,24.80
2018-08-10T16:14:43.455Z,24.70
2018-08-10T16:17:11.832Z,24.60
2018-08-10T16:19:40.695Z,24.80
2018-08-10T16:22:08.987Z,24.60
2018-08-10T16:24:37.266Z,24.40
2018-08-10T16:27:05.544Z,24.40
2018-08-10T16:29:33.837Z,24.10
2018-08-10T16:32:01.980Z,24.10
2018-08-10T16:34:30.281Z,24.00
2018-08-10T16:36:58.537Z,24.10
2018-08-10T16:39:26.912Z,23.90
2018-08-10T16:41:55.159Z,23.50
2018-08-10T16:44:23.338Z,23.50
2018-08-10T16:46:51.535Z,23.30
2018-08-10T16:49:19.759Z,23.10
2018-08-10T16:51:48.034Z,22.90
2018-08-10T16:54:16.414Z,22.80
2018-08-10T16:56:44.669Z,22.90
2018-08-10T16:59:13.209Z,22.90
2018-08-10T17:01:41.418Z,23.00
2018-08-10T17:04:09.836Z,22.90
2018-08-10T17:06:38.091Z,22.80
2018-08-10T17:09:07.872Z,22.90
2018-08-10T17:11:36.670Z,22.90
2018-08-10T17:14:04.892Z,22.70
2018-08-10T17:16:33.178Z,22.60
2018-08-10T17:19:01.297Z,22.50
2018-08-10T17:21:29.485Z,22.50
2018-08-10T17:23:57.743Z,22.40
2018-08-10T17:26:25.907Z,22.40
2018-08-10T17:28:54.018Z,22.30
2018-08-10T17:31:22.182Z,22.30
2018-08-10T17:33:50.377Z,22.20
2018-08-10T17:36:18.505Z,22.10
2018-08-10T17:38:46.696Z,22.10
2018-08-10T17:41:14.811Z,22.00
2018-08-10T17:43:43.469Z,22.00
2018-08-10T17:46:11.818Z,21.90
2018-08-10T17:48:40.243Z,21.90
2018-08-10T17:51:08.493Z,21.80
2018-08-10T17:53:36.677Z,21.80
2018-08-10T17:56:04.848Z,21.80
2018-08-10T17:58:32.962Z,21.80
2018-08-10T18:01:01.104Z,21.80
2018-08-10T18:03:29.204Z,21.80
2018-08-10T18:05:57.354Z,21.70
2018-08-10T18:08:25.536Z,21.70
2018-08-10T18:10:53.716Z,21.60
2018-08-10T18:13:22.562Z,21.50
2018-08-10T18:15:50.779Z,21.40
2018-08-10T18:18:18.964Z,21.40
2018-08-10T18:20:47.362Z,21.40
2018-08-10T18:23:15.624Z,21.30
2018-08-10T18:25:44.091Z,21.30
2018-08-10T18:28:12.266Z,21.20
2018-08-10T18:30:40.386Z,21.10
2018-08-10T18:33:08.503Z,21.00
2018-08-10T18:35:36.588Z,20.90
2018-08-10T18:38:04.832Z,20.90
2018-08-10T18:40:32.947Z,20.90
2018-08-10T18:43:01.040Z,20.80
2018-08-10T18:45:29.179Z,20.70
2018-08-10T18:47:57.236Z,20.70
2018-08-10T18:50:25.510Z,20.50
2018-08-10T18:52:53.566Z,20.50
2018-08-10T18:55:22.858Z,20.40
2018-08-10T18:57:51.389Z,20.30
2018-08-10T19:00:21.166Z,20.20
2018-08-10T19:02:49.230Z,20.10
2018-08-10T19:05:17.972Z,20.10
2018-08-10T19:07:46.662Z,20.00
2018-08-10T19:10:16.916Z,19.90
2018-08-10T19:14:09.513Z,19.80
2018-08-10T19:16:37.633Z,19.80
2018-08-10T19:19:05.708Z,20.00
2018-08-10T19:21:33.821Z,20.00
2018-08-10T19:24:33.739Z,20.10
2018-08-10T19:27:01.903Z,19.90
2018-08-10T19:29:30.244Z,19.80
2018-08-10T19:31:58.407Z,19.70
2018-08-10T19:34:26.540Z,19.60
2018-08-10T19:36:54.709Z,19.60
2018-08-10T19:39:22.863Z,19.60
2018-08-10T19:41:51.015Z,19.70
2018-08-10T19:44:19.732Z,19.70
2018-08-10T19:46:47.930Z,19.70
2018-08-10T19:49:16.147Z,19.70
2018-08-10T19:51:44.250Z,19.80
2018-08-10T19:54:12.452Z,19.70
2018-08-10T19:56:40.689Z,19.60
2018-08-10T19:59:10.664Z,19.60
2018-08-10T20:01:39.053Z,19.50
2018-08-10T20:04:08.084Z,19.50
2018-08-10T20:06:36.127Z,19.40
2018-08-10T20:09:07.454Z,19.40
2018-08-10T20:11:35.649Z,19.40
2018-08-10T20:14:03.969Z,19.30
2018-08-10T20:16:32.828Z,19.20
2018-08-10T20:19:01.350Z,19.20
2018-08-10T20:21:29.542Z,19.20
2018-08-10T20:23:57.669Z,19.00
2018-08-10T20:26:25.763Z,18.90
2018-08-10T20:28:53.967Z,18.80
2018-08-10T20:31:22.309Z,18.70
2018-08-10T20:34:53.678Z,18.60
2018-08-10T20:37:21.837Z,18.50
2018-08-10T20:39:52.249Z,18.30
2018-08-10T20:42:20.366Z,18.30
2018-08-10T20:44:49.138Z,18.20
2018-08-10T20:47:17.566Z,18.10
2018-08-10T20:49:45.692Z,18.00
2018-08-10T20:52:14.106Z,18.00
2018-08-10T20:54:42.588Z,18.00
2018-08-10T20:57:11.012Z,18.00
2018-08-10T20:59:39.331Z,18.00
2018-08-10T21:02:07.787Z,18.10
2018-08-10T21:04:36.293Z,18.00
2018-08-10T21:07:04.641Z,18.00
2018-08-10T21:09:32.836Z,18.10
2018-08-10T21:12:01.049Z,17.90
2018-08-10T21:14:29.209Z,17.80
2018-08-10T21:16:57.273Z,17.60
2018-08-10T21:19:25.501Z,17.60
2018-08-10T21:21:53.671Z,17.60
2018-08-10T21:24:22.085Z,17.70
2018-08-10T21:26:50.281Z,17.80
2018-08-10T21:29:18.640Z,17.70
2018-08-10T21:31:47.023Z,17.60
2018-08-10T21:34:15.191Z,17.60
2018-08-10T21:36:43.322Z,17.60
2018-08-10T21:39:12.431Z,17.50
2018-08-10T21:41:40.695Z,17.50
2018-08-10T21:45:12.239Z,17.50
2018-08-10T21:47:40.377Z,17.40
2018-08-10T21:50:10.896Z,17.40
2018-08-10T21:52:39.100Z,17.50
2018-08-10T21:55:07.389Z,17.50
2018-08-10T21:57:35.754Z,17.60
2018-08-10T22:00:08.936Z,17.60
2018-08-10T22:02:37.139Z,17.60
2018-08-10T22:05:06.309Z,17.40
2018-08-10T22:07:34.506Z,17.30
2018-08-10T22:10:02.744Z,17.30
2018-08-10T22:12:33.132Z,17.20
2018-08-10T22:15:06.964Z,17.20
2018-08-10T22:17:40.540Z,17.20
2018-08-10T22:20:08.631Z,17.20
2018-08-10T22:22:36.960Z,17.10
2018-08-10T22:25:05.242Z,17.00
2018-08-10T22:27:34.097Z,17.00
2018-08-10T22:30:02.322Z,17.00
2018-08-10T22:32:30.625Z,17.00
2018-08-10T22:34:58.749Z,17.00
2018-08-10T22:37:26.974Z,16.90
2018-08-10T22:39:55.434Z,16.80
2018-08-10T22:42:23.637Z,16.70
2018-08-10T22:44:51.868Z,16.70
2018-08-10T22:47:20.067Z,16.80
2018-08-10T22:49:48.366Z,16.70
2018-08-10T22:52:16.604Z,16.60
2018-08-10T22:54:44.840Z,16.60
2018-08-10T22:57:13.063Z,16.60
2018-08-10T22:59:41.252Z,16.60
2018-08-10T23:02:10.173Z,16.50
2018-08-10T23:04:38.391Z,16.50
2018-08-10T23:07:06.617Z,16.40
2018-08-10T23:09:34.747Z,16.40
2018-08-10T23:12:02.816Z,16.40
2018-08-10T23:14:30.995Z,16.30
2018-08-10T23:16:59.194Z,16.30
2018-08-10T23:19:27.298Z,16.20
2018-08-10T23:21:55.577Z,16.20
2018-08-10T23:24:23.835Z,16.20
2018-08-10T23:26:52.228Z,16.20
2018-08-10T23:29:20.325Z,16.10
2018-08-10T23:31:48.582Z,16.20
2018-08-10T23:34:16.768Z,16.20
2018-08-10T23:36:45.020Z,16.20
2018-08-10T23:39:13.190Z,16.10
2018-08-10T23:41:41.481Z,16.10
2018-08-10T23:44:09.798Z,16.10
2018-08-10T23:46:38.031Z,16.10
2018-08-10T23:49:06.402Z,16.10
2018-08-10T23:51:34.513Z,16.00
2018-08-10T23:54:02.730Z,16.10
2018-08-10T23:56:30.902Z,16.10
2018-08-10T23:58:59.362Z,16.00
